Time;durP1;ratioP1;P1;durP2;ratioP2;P2;SDS_P1;SDS_P2;PMS_P1;PMS_P2;Temp;Humidity;BMP_temperature;BMP_pressure;BME280_temperature;BME280_humidity;BME280_pressure;Samples;Min_cycle;Max_cycle;Signal;HPM_P1;HPM_P2
2022/08/20 00:01:00;;;;;;;9.07;8.20;;;;;;;;;;4949662;28;20404;-86
2022/08/20 00:03:37;;;;;;;9.52;8.65;;;;;;;;;;4951672;28;20211;-85
2022/08/20 00:06:12;;;;;;;9.95;9.15;;;;;;;;;;4947813;28;20176;-85
2022/08/20 00:08:38;;;;;;;10.32;9.43;;;;;;;;;;4962035;28;20185;-85
2022/08/20 00:11:05;;;;;;;10.07;9.27;;;;;;;;;;4962958;28;20220;-85
2022/08/20 00:13:36;;;;;;;10.80;9.32;;;;;;;;;;4961265;28;20600;-85
2022/08/20 00:16:03;;;;;;;9.48;8.68;;;;;;;;;;4963373;28;20177;-86
2022/08/20 00:18:28;;;;;;;9.35;8.55;;;;;;;;;;4962463;28;20185;-86
2022/08/20 00:20:55;;;;;;;8.60;7.80;;;;;;;;;;4962861;28;20195;-86
2022/08/20 00:23:22;;;;;;;8.38;7.57;;;;;;;;;;4953252;28;20664;-86
2022/08/20 00:25:48;;;;;;;8.23;7.53;;;;;;;;;;4962640;28;21032;-86
2022/08/20 00:28:15;;;;;;;7.93;7.20;;;;;;;;;;4953858;28;20196;-86
2022/08/20 00:30:42;;;;;;;8.25;7.45;;;;;;;;;;4962119;28;20185;-84
2022/08/20 00:33:12;;;;;;;8.18;7.38;;;;;;;;;;4962119;28;20213;-87
2022/08/20 00:35:40;;;;;;;7.53;6.93;;;;;;;;;;4962578;28;20284;-86
2022/08/20 00:38:06;;;;;;;7.85;7.15;;;;;;;;;;4955878;28;20204;-86
2022/08/20 00:40:38;;;;;;;7.93;7.28;;;;;;;;;;4962531;28;20173;-86
2022/08/20 00:43:05;;;;;;;7.82;7.22;;;;;;;;;;4960849;28;20205;-85
2022/08/20 00:45:32;;;;;;;8.18;7.47;;;;;;;;;;4963188;28;20279;-87
2022/08/20 00:47:58;;;;;;;8.13;7.43;;;;;;;;;;4960775;28;20582;-86
2022/08/20 00:50:35;;;;;;;8.35;7.65;;;;;;;;;;4962846;28;20208;-86
2022/08/20 00:53:02;;;;;;;8.57;7.78;;;;;;;;;;4960992;28;20267;-88
2022/08/20 00:55:28;;;;;;;8.95;8.18;;;;;;;;;;4954856;28;20959;-87
2022/08/20 00:57:56;;;;;;;9.18;8.38;;;;;;;;;;4960354;28;20271;-85
2022/08/20 01:00:31;;;;;;;9.57;8.70;;;;;;;;;;4951123;28;20178;-86
2022/08/20 01:02:59;;;;;;;8.93;8.23;;;;;;;;;;4948786;28;20288;-86
2022/08/20 01:05:25;;;;;;;9.15;8.35;;;;;;;;;;4963106;28;20663;-86
2022/08/20 01:07:52;;;;;;;9.73;8.27;;;;;;;;;;4962652;28;20288;-86
2022/08/20 01:10:20;;;;;;;9.00;8.30;;;;;;;;;;4960616;28;20193;-86
2022/08/20 01:12:47;;;;;;;8.85;8.05;;;;;;;;;;4952711;28;20189;-86
2022/08/20 01:15:15;;;;;;;9.70;8.80;;;;;;;;;;4960336;28;20181;-86
2022/08/20 01:17:49;;;;;;;8.63;7.95;;;;;;;;;;4961679;28;21148;-86
2022/08/20 01:20:21;;;;;;;8.95;8.25;;;;;;;;;;4959777;28;20631;-86
2022/08/20 01:25:42;;;;;;;8.35;7.60;;;;;;;;;;4947485;28;20208;-86
2022/08/20 01:28:09;;;;;;;8.20;7.50;;;;;;;;;;4961480;28;20930;-87
2022/08/20 01:30:36;;;;;;;9.73;8.73;;;;;;;;;;4960829;28;20189;-87
2022/08/20 01:33:02;;;;;;;9.27;8.48;;;;;;;;;;4961097;28;20201;-86
2022/08/20 01:35:29;;;;;;;9.45;8.48;;;;;;;;;;4950870;28;20568;-86
2022/08/20 01:37:54;;;;;;;8.95;8.18;;;;;;;;;;4959289;28;20695;-86
2022/08/20 01:40:27;;;;;;;9.20;8.40;;;;;;;;;;4959478;28;20223;-86
2022/08/20 01:42:53;;;;;;;9.02;8.32;;;;;;;;;;4962170;28;20283;-86
2022/08/20 01:45:19;;;;;;;9.38;8.63;;;;;;;;;;4959887;28;20181;-86
2022/08/20 01:47:45;;;;;;;9.95;9.05;;;;;;;;;;4953440;28;20332;-86
2022/08/20 01:50:17;;;;;;;9.45;8.70;;;;;;;;;;4959612;28;20197;-86
2022/08/20 01:52:50;;;;;;;9.93;9.10;;;;;;;;;;4958923;28;20197;-86
2022/08/20 01:55:17;;;;;;;10.25;9.25;;;;;;;;;;4962030;28;20189;-86
2022/08/20 01:57:43;;;;;;;9.63;8.73;;;;;;;;;;4961443;28;20207;-85
2022/08/20 02:00:12;;;;;;;9.50;8.50;;;;;;;;;;4960705;28;20181;-87
2022/08/20 02:02:38;;;;;;;10.60;9.60;;;;;;;;;;4962277;28;20271;-86
2022/08/20 02:05:04;;;;;;;11.15;10.13;;;;;;;;;;4951829;28;20185;-86
2022/08/20 02:07:31;;;;;;;10.65;9.70;;;;;;;;;;4965417;28;20185;-86
2022/08/20 02:09:57;;;;;;;12.32;11.18;;;;;;;;;;4965778;28;20196;-86
2022/08/20 02:12:23;;;;;;;11.57;10.55;;;;;;;;;;4963718;28;20272;-86
2022/08/20 02:14:50;;;;;;;11.60;10.60;;;;;;;;;;4955655;28;20323;-86
2022/08/20 02:17:18;;;;;;;11.02;10.13;;;;;;;;;;4963114;28;20714;-86
2022/08/20 02:19:47;;;;;;;11.52;10.63;;;;;;;;;;4965365;28;20216;-85
2022/08/20 02:22:20;;;;;;;11.50;10.50;;;;;;;;;;4962488;28;20678;-86
2022/08/20 02:24:46;;;;;;;11.13;10.13;;;;;;;;;;4962486;28;20588;-86
2022/08/20 02:27:12;;;;;;;12.57;11.38;;;;;;;;;;4955374;28;20189;-87
2022/08/20 02:29:39;;;;;;;10.95;10.05;;;;;;;;;;4967396;28;20331;-86
2022/08/20 02:32:07;;;;;;;10.93;9.98;;;;;;;;;;4958298;28;20189;-86
2022/08/20 02:34:33;;;;;;;12.18;11.07;;;;;;;;;;4962945;28;20315;-86
2022/08/20 02:37:00;;;;;;;11.18;10.10;;;;;;;;;;4961906;28;20205;-86
2022/08/20 02:39:26;;;;;;;10.80;9.95;;;;;;;;;;4965021;28;20264;-86
2022/08/20 02:41:52;;;;;;;11.18;10.18;;;;;;;;;;4963606;28;20184;-86
2022/08/20 02:44:19;;;;;;;11.50;10.50;;;;;;;;;;4963226;28;20613;-86
2022/08/20 02:46:46;;;;;;;11.65;10.63;;;;;;;;;;4962644;28;20273;-86
2022/08/20 02:49:12;;;;;;;10.25;9.45;;;;;;;;;;4956253;28;20665;-87
2022/08/20 02:51:38;;;;;;;11.00;10.00;;;;;;;;;;4964789;28;20212;-86
2022/08/20 02:54:04;;;;;;;11.30;10.25;;;;;;;;;;4962347;28;20206;-86
2022/08/20 02:56:30;;;;;;;11.18;10.27;;;;;;;;;;4963501;28;20204;-86
2022/08/20 02:58:56;;;;;;;12.10;10.82;;;;;;;;;;4958029;28;20208;-86
2022/08/20 03:01:22;;;;;;;12.13;11.00;;;;;;;;;;4962203;28;20190;-87
2022/08/20 03:03:48;;;;;;;12.18;10.98;;;;;;;;;;4954229;28;20197;-86
2022/08/20 03:06:14;;;;;;;11.40;10.45;;;;;;;;;;4955186;28;20212;-86
2022/08/20 03:08:40;;;;;;;11.27;10.30;;;;;;;;;;4955016;28;20186;-86
2022/08/20 03:11:06;;;;;;;11.95;10.85;;;;;;;;;;4963950;28;20593;-87
2022/08/20 03:13:32;;;;;;;11.50;10.52;;;;;;;;;;4961686;28;20233;-84
2022/08/20 03:16:00;;;;;;;11.23;10.20;;;;;;;;;;4963531;28;20217;-86
2022/08/20 03:18:27;;;;;;;10.35;9.52;;;;;;;;;;4958834;28;20185;-81
2022/08/20 03:20:53;;;;;;;10.90;10.00;;;;;;;;;;4963453;28;20229;-86
2022/08/20 03:23:20;;;;;;;11.05;10.15;;;;;;;;;;4961852;28;20627;-87
2022/08/20 03:25:46;;;;;;;11.77;10.77;;;;;;;;;;4957207;28;20324;-87
2022/08/20 03:28:13;;;;;;;11.13;10.23;;;;;;;;;;4962639;28;20181;-85
2022/08/20 03:30:39;;;;;;;11.85;10.85;;;;;;;;;;4964057;28;20280;-86
2022/08/20 03:33:06;;;;;;;11.38;10.32;;;;;;;;;;4964017;28;20296;-87
2022/08/20 03:35:32;;;;;;;11.35;10.38;;;;;;;;;;4964017;28;20437;-86
2022/08/20 03:37:59;;;;;;;11.50;10.50;;;;;;;;;;4964132;28;20454;-86
2022/08/20 03:40:26;;;;;;;11.70;10.60;;;;;;;;;;4964083;28;20181;-85
2022/08/20 03:42:52;;;;;;;11.68;10.77;;;;;;;;;;4957366;28;20236;-86
2022/08/20 03:45:19;;;;;;;11.52;10.52;;;;;;;;;;4962927;28;20189;-86
2022/08/20 03:47:45;;;;;;;11.05;10.00;;;;;;;;;;4962080;28;20190;-86
2022/08/20 03:50:12;;;;;;;11.07;10.07;;;;;;;;;;4962267;28;20197;-85
2022/08/20 03:52:38;;;;;;;11.05;10.15;;;;;;;;;;4960618;28;20205;-85
2022/08/20 03:55:06;;;;;;;12.02;10.93;;;;;;;;;;4962614;28;20193;-86
2022/08/20 03:57:32;;;;;;;12.00;10.80;;;;;;;;;;4959637;28;20221;-85
2022/08/20 03:59:58;;;;;;;13.20;12.00;;;;;;;;;;4963347;28;20235;-86
2022/08/20 04:02:26;;;;;;;12.77;11.68;;;;;;;;;;4961936;28;20189;-86
2022/08/20 04:04:52;;;;;;;13.20;11.90;;;;;;;;;;4963825;28;20200;-85
2022/08/20 04:07:24;;;;;;;12.82;11.73;;;;;;;;;;4961424;28;20244;-82
2022/08/20 04:09:50;;;;;;;12.93;11.82;;;;;;;;;;4956031;28;20182;-81
2022/08/20 04:12:16;;;;;;;13.18;11.88;;;;;;;;;;4964988;28;20280;-82
2022/08/20 04:14:42;;;;;;;12.75;11.75;;;;;;;;;;4965112;28;20304;-81
2022/08/20 04:17:10;;;;;;;12.60;11.35;;;;;;;;;;4961837;28;20304;-81
2022/08/20 04:19:37;;;;;;;11.48;10.48;;;;;;;;;;4949137;28;20182;-81
2022/08/20 04:22:03;;;;;;;12.77;11.68;;;;;;;;;;4956267;28;20255;-81
2022/08/20 04:24:29;;;;;;;11.50;10.55;;;;;;;;;;4963844;28;20778;-81
2022/08/20 04:26:56;;;;;;;11.02;10.10;;;;;;;;;;4958254;28;20261;-81
2022/08/20 04:29:23;;;;;;;11.40;10.27;;;;;;;;;;4964400;28;20203;-81
2022/08/20 04:31:49;;;;;;;11.15;10.15;;;;;;;;;;4965222;28;20181;-81
2022/08/20 04:34:18;;;;;;;11.70;10.52;;;;;;;;;;4962820;28;20695;-81
2022/08/20 04:36:46;;;;;;;12.00;10.93;;;;;;;;;;4953942;28;20292;-81
2022/08/20 04:39:12;;;;;;;12.10;10.85;;;;;;;;;;4954555;28;20180;-81
2022/08/20 04:41:38;;;;;;;12.18;11.07;;;;;;;;;;4955338;28;20663;-81
2022/08/20 04:44:04;;;;;;;12.75;11.55;;;;;;;;;;4963802;28;20578;-81
2022/08/20 04:46:31;;;;;;;12.52;11.32;;;;;;;;;;4964738;28;20815;-81
2022/08/20 04:48:57;;;;;;;13.35;12.05;;;;;;;;;;4962365;28;20189;-81
2022/08/20 04:51:23;;;;;;;11.80;10.80;;;;;;;;;;4961958;28;20185;-81
2022/08/20 04:53:49;;;;;;;12.82;11.63;;;;;;;;;;4965360;28;20220;-81
2022/08/20 04:56:18;;;;;;;12.63;11.52;;;;;;;;;;4961779;28;20205;-81
2022/08/20 04:58:49;;;;;;;13.15;11.98;;;;;;;;;;4962147;28;20181;-81
2022/08/20 05:01:15;;;;;;;13.02;11.82;;;;;;;;;;4964097;28;20473;-81
2022/08/20 05:03:41;;;;;;;12.65;11.55;;;;;;;;;;4965716;28;20200;-81
2022/08/20 05:06:08;;;;;;;12.57;11.48;;;;;;;;;;4954251;28;20194;-81
2022/08/20 05:08:35;;;;;;;12.95;11.40;;;;;;;;;;4961467;28;20181;-81
2022/08/20 05:11:01;;;;;;;12.45;11.35;;;;;;;;;;4950891;28;20182;-81
2022/08/20 05:13:27;;;;;;;11.75;10.77;;;;;;;;;;4964667;28;20196;-81
2022/08/20 05:15:53;;;;;;;13.27;12.07;;;;;;;;;;4963447;28;20212;-81
2022/08/20 05:18:21;;;;;;;12.68;11.48;;;;;;;;;;4956052;28;20221;-82
2022/08/20 05:20:48;;;;;;;11.68;10.65;;;;;;;;;;4967693;28;20188;-81
2022/08/20 05:23:15;;;;;;;11.80;10.70;;;;;;;;;;4950138;28;20225;-81
2022/08/20 05:25:42;;;;;;;11.25;10.35;;;;;;;;;;4954743;28;20196;-81
2022/08/20 05:28:13;;;;;;;12.00;11.00;;;;;;;;;;4961399;28;20671;-81
2022/08/20 05:30:44;;;;;;;12.60;11.38;;;;;;;;;;4950104;28;21091;-81
2022/08/20 05:33:12;;;;;;;10.80;9.70;;;;;;;;;;4950910;28;20280;-81
2022/08/20 05:35:39;;;;;;;11.57;10.45;;;;;;;;;;4963753;28;20193;-81
2022/08/20 05:38:05;;;;;;;12.15;11.15;;;;;;;;;;4951425;28;20221;-81
2022/08/20 05:40:31;;;;;;;12.00;11.00;;;;;;;;;;4962134;28;20217;-81
2022/08/20 05:42:57;;;;;;;13.73;11.15;;;;;;;;;;4957775;28;20221;-82
2022/08/20 05:45:23;;;;;;;12.40;11.27;;;;;;;;;;4968308;28;20181;-81
2022/08/20 05:47:50;;;;;;;11.55;10.65;;;;;;;;;;4967677;28;20562;-81
2022/08/20 05:50:16;;;;;;;11.88;10.88;;;;;;;;;;4966901;28;20216;-81
2022/08/20 05:52:42;;;;;;;11.88;10.88;;;;;;;;;;4957137;28;20652;-81
2022/08/20 05:55:12;;;;;;;11.88;10.68;;;;;;;;;;4965190;28;20206;-82
2022/08/20 05:57:38;;;;;;;11.45;10.55;;;;;;;;;;4965244;28;20296;-81
2022/08/20 06:00:06;;;;;;;11.75;10.75;;;;;;;;;;4966470;28;20189;-81
2022/08/20 07:22:13;;;;;;;10.50;9.60;;;;;;;;;;5800842;23;20206;-85
2022/08/20 07:24:39;;;;;;;10.88;9.88;;;;;;;;;;4899209;29;20262;-83
2022/08/20 07:27:05;;;;;;;11.15;10.25;;;;;;;;;;4898076;29;20283;-84
2022/08/20 07:32:35;;;;;;;10.60;9.70;;;;;;;;;;4899526;29;20254;-86
2022/08/20 07:35:01;;;;;;;10.80;9.80;;;;;;;;;;4908753;29;20941;-85
2022/08/20 07:37:27;;;;;;;11.30;10.38;;;;;;;;;;4909989;29;20250;-86
2022/08/20 07:39:53;;;;;;;11.68;10.68;;;;;;;;;;4906382;29;20187;-86
2022/08/20 07:42:19;;;;;;;10.82;9.80;;;;;;;;;;4904848;29;21528;-85
2022/08/20 07:44:45;;;;;;;9.95;9.10;;;;;;;;;;4904917;29;20187;-86
2022/08/20 07:47:11;;;;;;;10.40;9.45;;;;;;;;;;4904593;29;20690;-85
2022/08/20 07:49:38;;;;;;;10.60;9.70;;;;;;;;;;4904932;29;20209;-86
2022/08/20 07:52:04;;;;;;;10.82;9.93;;;;;;;;;;4904547;29;20309;-86
2022/08/20 07:54:30;;;;;;;9.65;8.65;;;21.30;74.50;;;;;;4905032;29;20187;-84
2022/08/20 07:57:01;;;;;;;9.13;8.35;;;21.50;29.80;;;;;;4911434;29;20218;-85
2022/08/20 07:59:28;;;;;;;8.63;7.80;;;21.60;26.00;;;;;;4922119;29;20187;-85
2022/08/20 08:01:53;;;;;;;9.60;7.32;;;21.50;31.90;;;;;;4921299;29;20289;-86
2022/08/20 08:04:19;;;;;;;7.75;7.15;;;21.60;30.50;;;;;;4907594;29;20269;-85
2022/08/20 08:06:44;;;;;;;7.93;7.22;;;21.60;34.50;;;;;;4910330;29;20278;-86
2022/08/20 08:09:13;;;;;;;7.40;6.80;;;21.60;12.40;;;;;;4907636;29;20191;-85
2022/08/20 08:11:42;;;;;;;7.90;7.20;;;21.60;15.20;;;;;;4907358;29;20720;-85
2022/08/20 08:14:10;;;;;;;7.22;6.53;;;21.70;4.60;;;;;;4907665;29;20198;-85
2022/08/20 08:16:37;;;;;;;7.88;7.28;;;21.70;13.10;;;;;;4921496;29;20249;-85
2022/08/20 08:19:07;;;;;;;7.95;7.25;;;21.90;9.70;;;;;;4921730;29;20194;-85
2022/08/20 08:21:33;;;;;;;8.35;7.47;;;21.60;4.50;;;;;;4921487;29;20922;-85
2022/08/20 08:23:58;;;;;;;7.93;7.28;;;21.70;1.00;;;;;;4915884;29;20292;-85
2022/08/20 08:26:25;;;;;;;8.05;7.28;;;22.10;1.00;;;;;;4906179;29;20198;-84
2022/08/20 08:28:50;;;;;;;9.57;7.72;;;22.00;1.00;;;;;;4911057;29;20191;-84
2022/08/20 08:31:16;;;;;;;8.40;7.70;;;22.10;1.00;;;;;;4913546;29;20214;-85
2022/08/20 08:33:42;;;;;;;8.57;7.88;;;22.60;1.00;;;;;;4921577;29;20238;-85
2022/08/20 08:36:13;;;;;;;7.55;6.82;;;22.20;1.00;;;;;;4905317;29;20214;-85
2022/08/20 08:38:43;;;;;;;8.60;7.80;;;22.20;1.00;;;;;;4907174;29;20255;-85
2022/08/20 08:41:23;;;;;;;8.68;7.93;;;22.20;1.00;;;;;;4907160;29;20286;-85
2022/08/20 08:43:52;;;;;;;9.50;8.60;;;22.10;1.00;;;;;;4905275;29;20214;-85
2022/08/20 08:46:23;;;;;;;8.75;8.05;;;22.20;1.00;;;;;;4906517;29;20321;-85
2022/08/20 08:48:54;;;;;;;9.90;9.00;;;22.40;1.00;;;;;;4906942;29;20193;-85
2022/08/20 08:51:36;;;;;;;9.85;8.93;;;22.40;1.00;;;;;;4906359;29;20187;-85
2022/08/20 08:54:04;;;;;;;8.57;7.88;;;22.40;1.00;;;;;;4921302;29;20293;-85
2022/08/20 08:56:30;;;;;;;8.63;7.93;;;22.60;1.00;;;;;;4921283;29;20187;-86
2022/08/20 08:59:07;;;;;;;9.65;8.80;;;23.00;1.00;;;;;;4921359;29;20198;-85
2022/08/20 09:01:44;;;;;;;9.55;8.75;;;22.90;1.00;;;;;;4908743;29;20198;-85
2022/08/20 09:04:14;;;;;;;8.95;8.15;;;22.80;1.00;;;;;;4921337;29;20183;-85
2022/08/20 09:06:41;;;;;;;10.13;9.13;;;22.80;1.00;;;;;;4920968;29;20197;-85
2022/08/20 09:09:15;;;;;;;9.15;8.35;;;22.70;99.90;;;;;;4905344;29;20195;-85
2022/08/20 09:11:48;;;;;;;8.48;7.75;;;23.00;99.90;;;;;;4921014;29;20200;-86
2022/08/20 09:14:13;;;;;;;8.15;6.93;;;22.80;99.90;;;;;;4906886;29;20904;-86
2022/08/20 09:16:39;;;;;;;7.40;6.80;;;22.70;1.00;;;;;;4912532;29;20266;-85
2022/08/20 09:19:05;;;;;;;9.55;8.65;;;22.70;1.00;;;;;;4924825;29;20190;-85
2022/08/20 09:21:30;;;;;;;9.15;8.35;;;22.60;1.00;;;;;;4919014;29;20297;-85
2022/08/20 09:23:56;;;;;;;8.30;7.50;;;22.70;1.00;;;;;;4909977;29;20242;-85
2022/08/20 09:26:21;;;;;;;8.30;7.63;;;22.60;1.00;;;;;;4910888;29;20190;-86
2022/08/20 09:28:47;;;;;;;8.70;7.80;;;22.60;1.00;;;;;;4916671;29;20178;-83
2022/08/20 09:31:12;;;;;;;13.02;9.02;;;22.50;1.00;;;;;;4911057;29;20190;-82
2022/08/20 09:33:38;;;;;;;9.52;8.63;;;22.50;1.00;;;;;;4912585;29;20262;-82
2022/08/20 09:36:04;;;;;;;10.02;9.02;;;22.60;1.00;;;;;;4910653;29;20186;-82
2022/08/20 09:38:29;;;;;;;9.05;8.18;;;22.50;1.00;;;;;;4910093;29;20218;-81
2022/08/20 09:40:55;;;;;;;9.65;8.75;;;22.50;1.00;;;;;;4917637;29;20195;-81
2022/08/20 09:43:20;;;;;;;9.25;8.30;;;22.40;1.00;;;;;;4910754;29;20202;-82
2022/08/20 09:45:46;;;;;;;9.27;8.35;;;22.50;1.00;;;;;;4923383;29;20278;-81
2022/08/20 09:48:12;;;;;;;8.88;8.18;;;22.30;1.00;;;;;;4915381;29;20194;-82
2022/08/20 09:50:43;;;;;;;10.20;9.30;;;22.50;1.00;;;;;;4909128;29;20437;-84
2022/08/20 09:53:09;;;;;;;10.48;9.57;;;22.60;1.00;;;;;;4918153;29;20242;-85
